Rawalpindi, Pakistan
Current Conditions -  °F | °C
As of 1:00 PM on Saturday 25 Oct 2014 (Local Time) from OPRN Reporting Station
Haze Haze  
Wind Chill: 79°   Ceiling: Unl
Heat Index: 80°   Visibility: 2.5mi
Dew Point: 59°   Wind: 7mph
Humidity: 51%   Direction: 270°W
Pressure: NA   Gusts: NA
Location:  33.6°N, 73.04°E
Report Text: OPRN 250800Z 27006KT 4000 HZ SKC 26/15 Q1015.1/29.97
Loading
Personal Weather Stations






























Interactive Weather Map New forecast layout! Learn more

10-Day Weather Forecast

Advertisements
Track Severe Weather on mobile